sensor_id;sensor_type;location;lat;lon;timestamp;temperature;humidity
45008;DHT22;30743;52.008;5.644;2022-10-24T00:01:38;19.30;99.90
45008;DHT22;30743;52.008;5.644;2022-10-24T00:04:03;19.30;99.90
45008;DHT22;30743;52.008;5.644;2022-10-24T00:06:29;19.20;99.90
45008;DHT22;30743;52.008;5.644;2022-10-24T00:08:55;19.20;99.90
45008;DHT22;30743;52.008;5.644;2022-10-24T00:11:26;19.10;99.90
45008;DHT22;30743;52.008;5.644;2022-10-24T00:13:53;19.10;99.90
45008;DHT22;30743;52.008;5.644;2022-10-24T00:16:19;19.00;99.90
45008;DHT22;30743;52.008;5.644;2022-10-24T00:18:45;19.00;99.90
45008;DHT22;30743;52.008;5.644;2022-10-24T00:21:10;18.90;99.90
45008;DHT22;30743;52.008;5.644;2022-10-24T00:23:36;18.90;99.90
45008;DHT22;30743;52.008;5.644;2022-10-24T00:26:03;18.90;99.90
45008;DHT22;30743;52.008;5.644;2022-10-24T00:28:31;18.70;99.90
45008;DHT22;30743;52.008;5.644;2022-10-24T00:30:57;18.80;99.90
45008;DHT22;30743;52.008;5.644;2022-10-24T00:33:23;18.80;99.90
45008;DHT22;30743;52.008;5.644;2022-10-24T00:35:49;18.60;99.90
45008;DHT22;30743;52.008;5.644;2022-10-24T00:38:14;18.80;99.90
45008;DHT22;30743;52.008;5.644;2022-10-24T00:40:40;18.80;99.90
45008;DHT22;30743;52.008;5.644;2022-10-24T00:43:17;19.80;99.90
45008;DHT22;30743;52.008;5.644;2022-10-24T00:45:47;18.80;99.90
45008;DHT22;30743;52.008;5.644;2022-10-24T00:48:20;18.70;99.90
45008;DHT22;30743;52.008;5.644;2022-10-24T00:50:49;18.60;99.90
45008;DHT22;30743;52.008;5.644;2022-10-24T00:53:15;18.60;99.90
45008;DHT22;30743;52.008;5.644;2022-10-24T00:55:42;18.50;99.90
45008;DHT22;30743;52.008;5.644;2022-10-24T00:58:10;18.50;99.90
45008;DHT22;30743;52.008;5.644;2022-10-24T01:00:36;18.50;99.90
45008;DHT22;30743;52.008;5.644;2022-10-24T01:03:02;18.60;99.90
45008;DHT22;30743;52.008;5.644;2022-10-24T01:05:35;18.60;99.90
45008;DHT22;30743;52.008;5.644;2022-10-24T01:08:23;18.60;99.90
45008;DHT22;30743;52.008;5.644;2022-10-24T01:11:10;18.60;99.90
45008;DHT22;30743;52.008;5.644;2022-10-24T01:13:57;18.60;99.90
45008;DHT22;30743;52.008;5.644;2022-10-24T01:16:44;18.60;99.90
45008;DHT22;30743;52.008;5.644;2022-10-24T01:22:14;18.70;99.90
45008;DHT22;30743;52.008;5.644;2022-10-24T01:25:01;18.60;99.90
45008;DHT22;30743;52.008;5.644;2022-10-24T01:30:11;18.80;99.90
45008;DHT22;30743;52.008;5.644;2022-10-24T01:32:57;18.90;99.90
45008;DHT22;30743;52.008;5.644;2022-10-24T01:35:53;19.00;99.90
45008;DHT22;30743;52.008;5.644;2022-10-24T01:38:33;19.00;99.90
45008;DHT22;30743;52.008;5.644;2022-10-24T01:41:07;19.10;99.90
45008;DHT22;30743;52.008;5.644;2022-10-24T01:43:38;19.00;99.90
45008;DHT22;30743;52.008;5.644;2022-10-24T01:46:09;19.00;99.90
45008;DHT22;30743;52.008;5.644;2022-10-24T01:48:40;19.00;99.90
45008;DHT22;30743;52.008;5.644;2022-10-24T01:51:10;19.00;99.90
45008;DHT22;30743;52.008;5.644;2022-10-24T01:53:37;18.90;99.90
45008;DHT22;30743;52.008;5.644;2022-10-24T01:56:03;18.90;99.90
45008;DHT22;30743;52.008;5.644;2022-10-24T01:58:29;19.00;99.90
45008;DHT22;30743;52.008;5.644;2022-10-24T02:00:59;19.00;99.90
45008;DHT22;30743;52.008;5.644;2022-10-24T02:03:41;19.00;99.90
45008;DHT22;30743;52.008;5.644;2022-10-24T02:06:12;18.90;99.90
45008;DHT22;30743;52.008;5.644;2022-10-24T02:08:42;19.00;99.90
45008;DHT22;30743;52.008;5.644;2022-10-24T02:11:09;19.00;99.90
45008;DHT22;30743;52.008;5.644;2022-10-24T02:13:57;18.90;99.90
45008;DHT22;30743;52.008;5.644;2022-10-24T02:16:24;18.90;99.90
45008;DHT22;30743;52.008;5.644;2022-10-24T02:18:52;18.90;99.90
45008;DHT22;30743;52.008;5.644;2022-10-24T02:24:23;18.90;99.90
45008;DHT22;30743;52.008;5.644;2022-10-24T02:27:13;18.90;99.90
45008;DHT22;30743;52.008;5.644;2022-10-24T02:29:58;18.80;99.90
45008;DHT22;30743;52.008;5.644;2022-10-24T02:32:29;18.80;99.90
45008;DHT22;30743;52.008;5.644;2022-10-24T02:34:57;18.80;99.90
45008;DHT22;30743;52.008;5.644;2022-10-24T02:37:24;18.90;99.90
45008;DHT22;30743;52.008;5.644;2022-10-24T02:39:52;18.80;99.90
45008;DHT22;30743;52.008;5.644;2022-10-24T02:42:21;18.80;99.90
45008;DHT22;30743;52.008;5.644;2022-10-24T02:44:48;18.70;99.90
45008;DHT22;30743;52.008;5.644;2022-10-24T02:47:14;18.90;99.90
45008;DHT22;30743;52.008;5.644;2022-10-24T02:49:41;18.80;99.90
45008;DHT22;30743;52.008;5.644;2022-10-24T02:52:07;18.90;99.90
45008;DHT22;30743;52.008;5.644;2022-10-24T02:54:32;18.90;99.90
45008;DHT22;30743;52.008;5.644;2022-10-24T02:57:00;18.80;99.90
45008;DHT22;30743;52.008;5.644;2022-10-24T02:59:26;19.00;99.90
45008;DHT22;30743;52.008;5.644;2022-10-24T03:01:52;19.00;99.90
45008;DHT22;30743;52.008;5.644;2022-10-24T03:04:17;19.00;99.90
45008;DHT22;30743;52.008;5.644;2022-10-24T03:06:43;19.00;99.90
45008;DHT22;30743;52.008;5.644;2022-10-24T03:09:09;19.00;99.90
45008;DHT22;30743;52.008;5.644;2022-10-24T03:11:34;19.00;99.90
45008;DHT22;30743;52.008;5.644;2022-10-24T03:14:00;19.00;99.90
45008;DHT22;30743;52.008;5.644;2022-10-24T03:16:25;19.20;99.90
45008;DHT22;30743;52.008;5.644;2022-10-24T03:18:53;19.10;99.90
45008;DHT22;30743;52.008;5.644;2022-10-24T03:21:18;19.00;99.90
45008;DHT22;30743;52.008;5.644;2022-10-24T03:23:44;18.90;99.90
45008;DHT22;30743;52.008;5.644;2022-10-24T03:26:09;18.80;99.90
45008;DHT22;30743;52.008;5.644;2022-10-24T03:28:35;18.90;99.90
45008;DHT22;30743;52.008;5.644;2022-10-24T03:31:00;18.90;99.90
45008;DHT22;30743;52.008;5.644;2022-10-24T03:33:26;18.80;99.90
45008;DHT22;30743;52.008;5.644;2022-10-24T03:35:53;19.90;99.90
45008;DHT22;30743;52.008;5.644;2022-10-24T03:38:20;18.70;99.90
45008;DHT22;30743;52.008;5.644;2022-10-24T03:40:46;18.70;99.90
45008;DHT22;30743;52.008;5.644;2022-10-24T03:43:12;18.60;99.90
45008;DHT22;30743;52.008;5.644;2022-10-24T03:45:37;18.70;99.90
45008;DHT22;30743;52.008;5.644;2022-10-24T03:48:04;18.60;99.90
45008;DHT22;30743;52.008;5.644;2022-10-24T03:50:30;18.60;99.90
45008;DHT22;30743;52.008;5.644;2022-10-24T03:52:55;18.70;99.90
45008;DHT22;30743;52.008;5.644;2022-10-24T03:55:21;18.70;99.90
45008;DHT22;30743;52.008;5.644;2022-10-24T03:57:46;18.80;99.90
45008;DHT22;30743;52.008;5.644;2022-10-24T04:00:12;18.80;99.90
45008;DHT22;30743;52.008;5.644;2022-10-24T04:02:38;18.90;99.90
45008;DHT22;30743;52.008;5.644;2022-10-24T04:05:04;18.80;99.90
45008;DHT22;30743;52.008;5.644;2022-10-24T04:07:30;18.80;99.90
45008;DHT22;30743;52.008;5.644;2022-10-24T04:09:55;18.80;99.90
45008;DHT22;30743;52.008;5.644;2022-10-24T04:12:22;18.80;99.90
45008;DHT22;30743;52.008;5.644;2022-10-24T04:14:48;19.10;99.90
45008;DHT22;30743;52.008;5.644;2022-10-24T04:17:13;18.60;99.90
45008;DHT22;30743;52.008;5.644;2022-10-24T04:19:39;18.70;99.90
45008;DHT22;30743;52.008;5.644;2022-10-24T04:22:04;18.70;99.90
45008;DHT22;30743;52.008;5.644;2022-10-24T04:24:30;18.80;99.90
45008;DHT22;30743;52.008;5.644;2022-10-24T04:26:55;18.80;99.90
45008;DHT22;30743;52.008;5.644;2022-10-24T04:29:21;18.90;99.90
45008;DHT22;30743;52.008;5.644;2022-10-24T04:31:46;18.80;99.90
45008;DHT22;30743;52.008;5.644;2022-10-24T04:34:11;18.80;99.90
45008;DHT22;30743;52.008;5.644;2022-10-24T04:36:37;19.10;99.90
45008;DHT22;30743;52.008;5.644;2022-10-24T04:39:03;19.20;99.90
45008;DHT22;30743;52.008;5.644;2022-10-24T04:41:28;19.10;99.90
45008;DHT22;30743;52.008;5.644;2022-10-24T04:43:54;19.30;99.90
45008;DHT22;30743;52.008;5.644;2022-10-24T04:46:19;19.20;99.90
45008;DHT22;30743;52.008;5.644;2022-10-24T04:48:45;19.10;99.90
45008;DHT22;30743;52.008;5.644;2022-10-24T04:51:11;19.20;99.90
45008;DHT22;30743;52.008;5.644;2022-10-24T04:53:37;19.40;99.90
45008;DHT22;30743;52.008;5.644;2022-10-24T04:56:02;19.50;99.90
45008;DHT22;30743;52.008;5.644;2022-10-24T04:58:28;19.40;99.90
45008;DHT22;30743;52.008;5.644;2022-10-24T05:00:53;19.10;99.90
45008;DHT22;30743;52.008;5.644;2022-10-24T05:03:20;18.90;99.90
45008;DHT22;30743;52.008;5.644;2022-10-24T05:05:47;18.90;99.90
45008;DHT22;30743;52.008;5.644;2022-10-24T05:08:13;18.80;99.90
45008;DHT22;30743;52.008;5.644;2022-10-24T05:10:38;18.80;99.90
45008;DHT22;30743;52.008;5.644;2022-10-24T05:13:04;18.90;99.90
45008;DHT22;30743;52.008;5.644;2022-10-24T05:15:30;18.70;99.90
45008;DHT22;30743;52.008;5.644;2022-10-24T05:17:56;18.50;99.90
45008;DHT22;30743;52.008;5.644;2022-10-24T05:20:22;18.80;99.90
45008;DHT22;30743;52.008;5.644;2022-10-24T05:22:47;18.80;99.90
45008;DHT22;30743;52.008;5.644;2022-10-24T05:25:13;19.00;99.90
45008;DHT22;30743;52.008;5.644;2022-10-24T05:27:38;19.00;99.90
45008;DHT22;30743;52.008;5.644;2022-10-24T05:30:04;18.90;99.90
45008;DHT22;30743;52.008;5.644;2022-10-24T05:32:30;18.70;99.90
45008;DHT22;30743;52.008;5.644;2022-10-24T05:34:56;18.70;99.90
45008;DHT22;30743;52.008;5.644;2022-10-24T05:37:21;18.50;99.90
45008;DHT22;30743;52.008;5.644;2022-10-24T05:39:47;18.70;99.90
45008;DHT22;30743;52.008;5.644;2022-10-24T05:42:12;18.90;99.90
45008;DHT22;30743;52.008;5.644;2022-10-24T05:44:38;18.90;99.90
45008;DHT22;30743;52.008;5.644;2022-10-24T05:47:04;18.90;99.90
45008;DHT22;30743;52.008;5.644;2022-10-24T05:49:29;18.90;99.90
45008;DHT22;30743;52.008;5.644;2022-10-24T05:51:55;18.70;99.90
45008;DHT22;30743;52.008;5.644;2022-10-24T05:54:21;18.60;99.90
45008;DHT22;30743;52.008;5.644;2022-10-24T05:56:46;18.70;99.90
45008;DHT22;30743;52.008;5.644;2022-10-24T05:59:12;18.60;99.90
45008;DHT22;30743;52.008;5.644;2022-10-24T06:01:38;18.80;99.90
45008;DHT22;30743;52.008;5.644;2022-10-24T06:04:04;18.80;99.90
45008;DHT22;30743;52.008;5.644;2022-10-24T06:06:29;18.70;99.90
45008;DHT22;30743;52.008;5.644;2022-10-24T06:08:55;18.70;99.90
45008;DHT22;30743;52.008;5.644;2022-10-24T06:11:20;18.70;99.90
45008;DHT22;30743;52.008;5.644;2022-10-24T06:13:46;18.80;99.90
45008;DHT22;30743;52.008;5.644;2022-10-24T06:30:05;18.60;99.90
45008;DHT22;30743;52.008;5.644;2022-10-24T06:32:30;18.40;99.90
45008;DHT22;30743;52.008;5.644;2022-10-24T06:34:56;18.60;99.90
45008;DHT22;30743;52.008;5.644;2022-10-24T06:37:22;18.70;99.90
45008;DHT22;30743;52.008;5.644;2022-10-24T06:39:47;18.70;99.90
45008;DHT22;30743;52.008;5.644;2022-10-24T06:42:13;18.50;99.90
45008;DHT22;30743;52.008;5.644;2022-10-24T06:44:38;18.60;99.90
45008;DHT22;30743;52.008;5.644;2022-10-24T06:47:05;18.80;99.90
45008;DHT22;30743;52.008;5.644;2022-10-24T06:49:30;18.90;99.90
45008;DHT22;30743;52.008;5.644;2022-10-24T06:51:56;19.00;99.90
45008;DHT22;30743;52.008;5.644;2022-10-24T06:54:22;19.00;99.90
45008;DHT22;30743;52.008;5.644;2022-10-24T06:56:47;18.90;99.90
45008;DHT22;30743;52.008;5.644;2022-10-24T06:59:15;18.80;99.90
45008;DHT22;30743;52.008;5.644;2022-10-24T07:01:41;18.70;99.90
45008;DHT22;30743;52.008;5.644;2022-10-24T07:04:07;18.70;99.90
45008;DHT22;30743;52.008;5.644;2022-10-24T07:06:33;18.70;99.90
45008;DHT22;30743;52.008;5.644;2022-10-24T07:09:00;18.70;99.90
45008;DHT22;30743;52.008;5.644;2022-10-24T07:11:26;18.80;99.90
45008;DHT22;30743;52.008;5.644;2022-10-24T07:13:53;19.10;99.90
45008;DHT22;30743;52.008;5.644;2022-10-24T07:16:18;18.80;99.90
45008;DHT22;30743;52.008;5.644;2022-10-24T07:18:45;18.80;99.90
45008;DHT22;30743;52.008;5.644;2022-10-24T07:21:25;18.80;99.90
45008;DHT22;30743;52.008;5.644;2022-10-24T07:23:52;19.10;99.90
45008;DHT22;30743;52.008;5.644;2022-10-24T07:26:19;19.30;99.90
45008;DHT22;30743;52.008;5.644;2022-10-24T07:28:46;19.40;99.90
45008;DHT22;30743;52.008;5.644;2022-10-24T07:31:23;19.20;99.90
45008;DHT22;30743;52.008;5.644;2022-10-24T07:33:50;19.40;99.90
45008;DHT22;30743;52.008;5.644;2022-10-24T07:36:17;19.50;99.90
45008;DHT22;30743;52.008;5.644;2022-10-24T07:38:44;19.60;99.90
45008;DHT22;30743;52.008;5.644;2022-10-24T07:41:10;20.00;99.90
45008;DHT22;30743;52.008;5.644;2022-10-24T07:43:36;20.30;99.90
45008;DHT22;30743;52.008;5.644;2022-10-24T07:46:05;20.40;99.90
45008;DHT22;30743;52.008;5.644;2022-10-24T07:48:31;20.20;99.90
45008;DHT22;30743;52.008;5.644;2022-10-24T07:50:57;20.30;99.90
45008;DHT22;30743;52.008;5.644;2022-10-24T07:53:22;20.30;99.90
45008;DHT22;30743;52.008;5.644;2022-10-24T07:55:50;20.10;99.90
45008;DHT22;30743;52.008;5.644;2022-10-24T07:58:15;20.20;99.90
45008;DHT22;30743;52.008;5.644;2022-10-24T08:00:41;20.20;99.90
45008;DHT22;30743;52.008;5.644;2022-10-24T08:03:06;20.20;99.90
45008;DHT22;30743;52.008;5.644;2022-10-24T08:05:32;20.30;99.90
45008;DHT22;30743;52.008;5.644;2022-10-24T08:07:57;20.40;99.90
45008;DHT22;30743;52.008;5.644;2022-10-24T08:10:23;20.70;99.90
45008;DHT22;30743;52.008;5.644;2022-10-24T08:12:48;20.80;99.90
45008;DHT22;30743;52.008;5.644;2022-10-24T08:15:14;21.00;99.90
45008;DHT22;30743;52.008;5.644;2022-10-24T08:17:39;20.90;99.90
45008;DHT22;30743;52.008;5.644;2022-10-24T08:20:07;20.90;99.90
45008;DHT22;30743;52.008;5.644;2022-10-24T08:22:33;20.80;99.90
45008;DHT22;30743;52.008;5.644;2022-10-24T08:25:00;20.30;99.90
45008;DHT22;30743;52.008;5.644;2022-10-24T08:27:26;20.50;99.90
45008;DHT22;30743;52.008;5.644;2022-10-24T08:29:51;19.90;99.90
45008;DHT22;30743;52.008;5.644;2022-10-24T08:32:17;20.00;99.90
45008;DHT22;30743;52.008;5.644;2022-10-24T08:34:42;20.10;99.90
45008;DHT22;30743;52.008;5.644;2022-10-24T08:37:08;19.70;99.90
45008;DHT22;30743;52.008;5.644;2022-10-24T08:39:34;19.70;99.90
45008;DHT22;30743;52.008;5.644;2022-10-24T08:42:05;19.40;99.90
45008;DHT22;30743;52.008;5.644;2022-10-24T08:44:38;19.10;99.90
45008;DHT22;30743;52.008;5.644;2022-10-24T08:47:34;19.30;99.90
45008;DHT22;30743;52.008;5.644;2022-10-24T08:52:34;19.10;99.90
45008;DHT22;30743;52.008;5.644;2022-10-24T08:55:18;19.20;99.90
45008;DHT22;30743;52.008;5.644;2022-10-24T08:57:49;19.10;99.90
45008;DHT22;30743;52.008;5.644;2022-10-24T09:00:23;19.20;99.90
45008;DHT22;30743;52.008;5.644;2022-10-24T09:02:54;19.30;99.90
45008;DHT22;30743;52.008;5.644;2022-10-24T09:06:00;19.40;99.90
45008;DHT22;30743;52.008;5.644;2022-10-24T09:10:59;19.90;99.90
45008;DHT22;30743;52.008;5.644;2022-10-24T09:13:26;20.00;99.90
45008;DHT22;30743;52.008;5.644;2022-10-24T09:15:52;20.30;99.90
45008;DHT22;30743;52.008;5.644;2022-10-24T09:18:21;20.10;99.90
45008;DHT22;30743;52.008;5.644;2022-10-24T09:20:49;20.10;99.90
45008;DHT22;30743;52.008;5.644;2022-10-24T09:23:16;20.10;99.90
45008;DHT22;30743;52.008;5.644;2022-10-24T09:25:47;20.00;99.90
45008;DHT22;30743;52.008;5.644;2022-10-24T09:28:14;20.00;99.90
45008;DHT22;30743;52.008;5.644;2022-10-24T09:30:40;19.90;99.90
45008;DHT22;30743;52.008;5.644;2022-10-24T09:33:27;20.00;99.90
45008;DHT22;30743;52.008;5.644;2022-10-24T09:35:56;20.40;99.90
45008;DHT22;30743;52.008;5.644;2022-10-24T09:40:55;21.00;99.90
45008;DHT22;30743;52.008;5.644;2022-10-24T09:43:55;20.90;99.90
45008;DHT22;30743;52.008;5.644;2022-10-24T09:46:23;20.50;99.90
45008;DHT22;30743;52.008;5.644;2022-10-24T09:51:46;21.20;99.90
45008;DHT22;30743;52.008;5.644;2022-10-24T09:57:16;21.50;99.90
45008;DHT22;30743;52.008;5.644;2022-10-24T09:59:47;21.30;99.90
45008;DHT22;30743;52.008;5.644;2022-10-24T10:02:36;21.40;99.90
45008;DHT22;30743;52.008;5.644;2022-10-24T10:07:32;21.30;99.90
45008;DHT22;30743;52.008;5.644;2022-10-24T10:10:33;21.30;99.90
45008;DHT22;30743;52.008;5.644;2022-10-24T10:13:16;21.50;99.90
45008;DHT22;30743;52.008;5.644;2022-10-24T10:15:57;22.00;99.90
45008;DHT22;30743;52.008;5.644;2022-10-24T10:18:40;22.30;99.90
45008;DHT22;30743;52.008;5.644;2022-10-24T10:21:16;22.20;99.90
45008;DHT22;30743;52.008;5.644;2022-10-24T10:23:49;22.00;99.90
45008;DHT22;30743;52.008;5.644;2022-10-24T10:26:19;21.70;99.90
45008;DHT22;30743;52.008;5.644;2022-10-24T10:28:52;21.70;99.90
45008;DHT22;30743;52.008;5.644;2022-10-24T10:31:21;21.80;99.90
45008;DHT22;30743;52.008;5.644;2022-10-24T10:33:53;21.80;99.90
45008;DHT22;30743;52.008;5.644;2022-10-24T10:36:30;21.50;99.90
45008;DHT22;30743;52.008;5.644;2022-10-24T10:39:28;21.20;99.90
45008;DHT22;30743;52.008;5.644;2022-10-24T10:41:55;21.40;99.90
45008;DHT22;30743;52.008;5.644;2022-10-24T10:44:37;21.70;99.90
45008;DHT22;30743;52.008;5.644;2022-10-24T10:47:16;21.50;99.90
45008;DHT22;30743;52.008;5.644;2022-10-24T10:49:45;21.40;99.90
45008;DHT22;30743;52.008;5.644;2022-10-24T10:52:31;21.10;99.90
45008;DHT22;30743;52.008;5.644;2022-10-24T10:55:17;20.60;99.90
45008;DHT22;30743;52.008;5.644;2022-10-24T11:03:35;21.00;99.90
45008;DHT22;30743;52.008;5.644;2022-10-24T11:06:17;21.10;99.90
45008;DHT22;30743;52.008;5.644;2022-10-24T11:11:23;21.80;99.90
45008;DHT22;30743;52.008;5.644;2022-10-24T11:14:13;22.40;99.90
45008;DHT22;30743;52.008;5.644;2022-10-24T11:16:40;22.60;99.90
45008;DHT22;30743;52.008;5.644;2022-10-24T11:19:28;22.20;99.90
45008;DHT22;30743;52.008;5.644;2022-10-24T11:21:56;22.20;99.90
45008;DHT22;30743;52.008;5.644;2022-10-24T11:24:24;22.20;99.90
45008;DHT22;30743;52.008;5.644;2022-10-24T11:26:55;21.80;99.90
45008;DHT22;30743;52.008;5.644;2022-10-24T11:32:23;21.20;99.90
45008;DHT22;30743;52.008;5.644;2022-10-24T11:34:55;21.00;99.90
45008;DHT22;30743;52.008;5.644;2022-10-24T11:37:34;20.70;99.90
45008;DHT22;30743;52.008;5.644;2022-10-24T11:40:11;21.10;99.90
45008;DHT22;30743;52.008;5.644;2022-10-24T11:45:44;21.50;99.90
45008;DHT22;30743;52.008;5.644;2022-10-24T11:48:18;20.90;99.90
45008;DHT22;30743;52.008;5.644;2022-10-24T11:50:54;21.00;99.90
45008;DHT22;30743;52.008;5.644;2022-10-24T11:56:00;20.50;99.90
45008;DHT22;30743;52.008;5.644;2022-10-24T11:58:28;20.60;99.90
45008;DHT22;30743;52.008;5.644;2022-10-24T12:01:30;20.50;99.90
45008;DHT22;30743;52.008;5.644;2022-10-24T12:04:16;20.40;99.90
45008;DHT22;30743;52.008;5.644;2022-10-24T12:07:22;20.70;99.90
45008;DHT22;30743;52.008;5.644;2022-10-24T12:10:18;20.90;99.90
45008;DHT22;30743;52.008;5.644;2022-10-24T12:12:54;21.00;99.90
45008;DHT22;30743;52.008;5.644;2022-10-24T12:20:53;20.10;99.90
45008;DHT22;30743;52.008;5.644;2022-10-24T12:23:24;19.90;99.90
45008;DHT22;30743;52.008;5.644;2022-10-24T12:28:40;20.10;99.90
45008;DHT22;30743;52.008;5.644;2022-10-24T12:33:38;20.00;99.90
45008;DHT22;30743;52.008;5.644;2022-10-24T12:36:04;19.90;99.90
45008;DHT22;30743;52.008;5.644;2022-10-24T12:41:02;19.90;99.90
45008;DHT22;30743;52.008;5.644;2022-10-24T12:43:38;19.90;99.90
45008;DHT22;30743;52.008;5.644;2022-10-24T12:48:43;19.90;99.90
45008;DHT22;30743;52.008;5.644;2022-10-24T12:51:28;19.40;99.90
45008;DHT22;30743;52.008;5.644;2022-10-24T12:56:27;19.00;99.90
45008;DHT22;30743;52.008;5.644;2022-10-24T12:59:19;19.20;99.90
45008;DHT22;30743;52.008;5.644;2022-10-24T13:01:44;19.50;99.90
45008;DHT22;30743;52.008;5.644;2022-10-24T13:04:28;19.50;99.90
45008;DHT22;30743;52.008;5.644;2022-10-24T13:07:24;19.70;99.90
45008;DHT22;30743;52.008;5.644;2022-10-24T13:10:23;20.10;99.90
45008;DHT22;30743;52.008;5.644;2022-10-24T13:18:57;20.40;99.90
45008;DHT22;30743;52.008;5.644;2022-10-24T13:21:31;20.50;99.90
45008;DHT22;30743;52.008;5.644;2022-10-24T13:26:42;20.60;99.90
45008;DHT22;30743;52.008;5.644;2022-10-24T13:37:23;20.70;99.90
45008;DHT22;30743;52.008;5.644;2022-10-24T13:42:41;20.60;99.90
45008;DHT22;30743;52.008;5.644;2022-10-24T13:45:32;20.50;99.90
45008;DHT22;30743;52.008;5.644;2022-10-24T13:48:06;20.50;99.90
45008;DHT22;30743;52.008;5.644;2022-10-24T13:50:36;20.60;99.90
45008;DHT22;30743;52.008;5.644;2022-10-24T13:53:19;20.60;99.90
45008;DHT22;30743;52.008;5.644;2022-10-24T13:55:48;20.70;99.90
45008;DHT22;30743;52.008;5.644;2022-10-24T14:00:47;20.00;99.90
45008;DHT22;30743;52.008;5.644;2022-10-24T14:03:16;20.00;99.90
45008;DHT22;30743;52.008;5.644;2022-10-24T14:05:56;19.80;99.90
45008;DHT22;30743;52.008;5.644;2022-10-24T14:08:34;19.70;99.90
45008;DHT22;30743;52.008;5.644;2022-10-24T14:11:03;19.70;99.90
45008;DHT22;30743;52.008;5.644;2022-10-24T14:13:33;19.70;99.90
45008;DHT22;30743;52.008;5.644;2022-10-24T14:16:00;19.80;99.90
45008;DHT22;30743;52.008;5.644;2022-10-24T14:18:26;20.00;99.90
45008;DHT22;30743;52.008;5.644;2022-10-24T14:20:55;20.10;99.90
45008;DHT22;30743;52.008;5.644;2022-10-24T14:23:26;20.20;99.90
45008;DHT22;30743;52.008;5.644;2022-10-24T14:26:04;20.50;99.90
45008;DHT22;30743;52.008;5.644;2022-10-24T14:28:38;20.50;99.90
45008;DHT22;30743;52.008;5.644;2022-10-24T14:31:18;20.70;99.90
45008;DHT22;30743;52.008;5.644;2022-10-24T14:33:47;20.80;99.90
45008;DHT22;30743;52.008;5.644;2022-10-24T14:36:18;20.50;99.90
45008;DHT22;30743;52.008;5.644;2022-10-24T14:38:50;20.70;99.90
45008;DHT22;30743;52.008;5.644;2022-10-24T14:41:17;20.70;99.90
45008;DHT22;30743;52.008;5.644;2022-10-24T14:43:44;20.50;99.90
45008;DHT22;30743;52.008;5.644;2022-10-24T14:46:24;20.80;99.90
45008;DHT22;30743;52.008;5.644;2022-10-24T14:48:52;20.90;99.90
45008;DHT22;30743;52.008;5.644;2022-10-24T14:53:48;21.10;99.90
45008;DHT22;30743;52.008;5.644;2022-10-24T14:56:25;21.10;99.90
45008;DHT22;30743;52.008;5.644;2022-10-24T14:58:53;21.10;99.90
45008;DHT22;30743;52.008;5.644;2022-10-24T15:01:21;21.10;99.90
45008;DHT22;30743;52.008;5.644;2022-10-24T15:03:52;20.90;99.90
45008;DHT22;30743;52.008;5.644;2022-10-24T15:06:24;21.00;99.90
45008;DHT22;30743;52.008;5.644;2022-10-24T15:09:05;20.90;99.90
45008;DHT22;30743;52.008;5.644;2022-10-24T15:11:39;20.80;99.90
45008;DHT22;30743;52.008;5.644;2022-10-24T15:17:03;20.00;99.90
45008;DHT22;30743;52.008;5.644;2022-10-24T15:19:36;19.80;99.90
45008;DHT22;30743;52.008;5.644;2022-10-24T15:22:02;19.30;99.90
45008;DHT22;30743;52.008;5.644;2022-10-24T15:24:28;20.00;99.90
45008;DHT22;30743;52.008;5.644;2022-10-24T15:27:11;18.80;99.90
45008;DHT22;30743;52.008;5.644;2022-10-24T15:29:38;18.50;99.90
45008;DHT22;30743;52.008;5.644;2022-10-24T15:32:04;18.10;99.90
45008;DHT22;30743;52.008;5.644;2022-10-24T15:34:30;18.00;99.90
45008;DHT22;30743;52.008;5.644;2022-10-24T15:36:57;17.80;99.90
45008;DHT22;30743;52.008;5.644;2022-10-24T15:39:23;17.80;99.90
45008;DHT22;30743;52.008;5.644;2022-10-24T15:41:49;17.80;99.90
45008;DHT22;30743;52.008;5.644;2022-10-24T15:44:17;17.90;99.90
45008;DHT22;30743;52.008;5.644;2022-10-24T15:46:44;17.80;99.90
45008;DHT22;30743;52.008;5.644;2022-10-24T15:49:10;17.80;99.90
45008;DHT22;30743;52.008;5.644;2022-10-24T15:51:37;17.80;99.90
45008;DHT22;30743;52.008;5.644;2022-10-24T15:54:03;18.10;99.90
45008;DHT22;30743;52.008;5.644;2022-10-24T15:56:28;18.10;99.90
45008;DHT22;30743;52.008;5.644;2022-10-24T15:58:54;18.20;99.90
45008;DHT22;30743;52.008;5.644;2022-10-24T16:01:27;18.50;99.90
45008;DHT22;30743;52.008;5.644;2022-10-24T16:03:54;18.50;99.90
45008;DHT22;30743;52.008;5.644;2022-10-24T16:06:20;18.70;99.90
45008;DHT22;30743;52.008;5.644;2022-10-24T16:08:46;18.90;99.90
45008;DHT22;30743;52.008;5.644;2022-10-24T16:11:12;18.90;99.90
45008;DHT22;30743;52.008;5.644;2022-10-24T16:13:38;19.00;99.90
45008;DHT22;30743;52.008;5.644;2022-10-24T16:16:04;19.00;99.90
45008;DHT22;30743;52.008;5.644;2022-10-24T16:18:29;19.10;99.90
45008;DHT22;30743;52.008;5.644;2022-10-24T16:20:57;19.10;99.90
45008;DHT22;30743;52.008;5.644;2022-10-24T16:23:23;19.20;99.90
45008;DHT22;30743;52.008;5.644;2022-10-24T16:25:50;19.20;99.90
45008;DHT22;30743;52.008;5.644;2022-10-24T16:28:15;19.40;99.90
45008;DHT22;30743;52.008;5.644;2022-10-24T16:30:44;19.40;99.90
45008;DHT22;30743;52.008;5.644;2022-10-24T16:33:11;19.30;99.90
45008;DHT22;30743;52.008;5.644;2022-10-24T16:35:38;19.50;99.90
45008;DHT22;30743;52.008;5.644;2022-10-24T16:38:05;19.30;99.90
45008;DHT22;30743;52.008;5.644;2022-10-24T16:40:36;19.30;99.90
45008;DHT22;30743;52.008;5.644;2022-10-24T16:43:02;19.50;99.90
45008;DHT22;30743;52.008;5.644;2022-10-24T16:45:28;19.50;99.90
45008;DHT22;30743;52.008;5.644;2022-10-24T16:47:56;19.60;99.90
45008;DHT22;30743;52.008;5.644;2022-10-24T16:50:25;19.60;99.90
45008;DHT22;30743;52.008;5.644;2022-10-24T16:53:02;19.70;99.90
45008;DHT22;30743;52.008;5.644;2022-10-24T16:55:29;19.70;99.90
45008;DHT22;30743;52.008;5.644;2022-10-24T16:57:56;19.70;99.90
45008;DHT22;30743;52.008;5.644;2022-10-24T17:00:22;19.70;99.90
45008;DHT22;30743;52.008;5.644;2022-10-24T17:02:50;19.60;99.90
45008;DHT22;30743;52.008;5.644;2022-10-24T17:05:21;20.30;99.90
45008;DHT22;30743;52.008;5.644;2022-10-24T17:07:47;19.60;99.90
45008;DHT22;30743;52.008;5.644;2022-10-24T17:10:14;19.60;99.90
45008;DHT22;30743;52.008;5.644;2022-10-24T17:12:41;19.70;99.90
45008;DHT22;30743;52.008;5.644;2022-10-24T17:15:07;19.70;99.90
45008;DHT22;30743;52.008;5.644;2022-10-24T17:17:33;19.70;99.90
45008;DHT22;30743;52.008;5.644;2022-10-24T17:20:00;19.60;99.90
45008;DHT22;30743;52.008;5.644;2022-10-24T17:22:26;19.60;99.90
45008;DHT22;30743;52.008;5.644;2022-10-24T17:24:52;19.50;99.90
45008;DHT22;30743;52.008;5.644;2022-10-24T17:27:18;19.30;99.90
45008;DHT22;30743;52.008;5.644;2022-10-24T17:29:44;19.20;99.90